Time;durP1;ratioP1;P1;durP2;ratioP2;P2;SDS_P1;SDS_P2;PMS_P1;PMS_P2;Temp;Humidity;BMP_temperature;BMP_pressure;BME280_temperature;BME280_humidity;BME280_pressure;Samples;Min_cycle;Max_cycle;Signal;HPM_P1;HPM_P2
2021/12/09 00:01:52;;;;;;;;;;;;;;;5.08;58.56;98751.87;4444564;32;32781;-82
2021/12/09 00:04:27;;;;;;;;;;;;;;;4.32;60.88;98746.38;4447583;32;32795;-81
2021/12/09 00:06:55;;;;;;;;;;;;;;;4.84;59.97;98751.72;4433312;32;33343;-80
2021/12/09 00:09:23;;;;;;;;;;;;;;;5.12;59.51;98748.06;4461353;32;33493;-82
2021/12/09 00:11:50;;;;;;;;;;;;;;;5.36;58.01;98749.97;4448017;32;34140;-80
2021/12/09 00:14:26;;;;;;;;;;;;;;;4.87;59.87;98756.81;4466392;32;34031;-82
2021/12/09 00:16:57;;;;;;;;;;;;;;;5.00;59.09;98766.59;4452036;32;34470;-82
2021/12/09 00:19:24;;;;;;;;;;;;;;;5.21;58.77;98766.97;4436566;32;32161;-84
2021/12/09 00:21:52;;;;;;;;;;;;;;;5.66;57.30;98784.16;4447349;32;33589;-83
2021/12/09 00:24:19;;;;;;;;;;;;;;;5.51;58.18;98771.94;4439844;32;32928;-83
2021/12/09 00:26:47;;;;;;;;;;;;;;;5.89;56.27;98768.41;4430047;32;34433;-84
2021/12/09 00:29:15;;;;;;;;;;;;;;;5.56;57.41;98781.31;4469097;32;32131;-84
2021/12/09 00:31:43;;;;;;;;;;;;;;;5.57;58.06;98766.22;4435397;32;34803;-81
2021/12/09 00:34:10;;;;;;;;;;;;;;;5.70;56.80;98753.78;4459132;32;34216;-82
2021/12/09 00:36:42;;;;;;;;;;;;;;;5.52;56.96;98736.47;4435601;32;34158;-81
2021/12/09 00:39:10;;;;;;;;;;;;;;;4.74;59.26;98731.22;4452710;32;32861;-79
2021/12/09 00:41:37;;;;;;;;;;;;;;;4.96;60.61;98726.19;4453251;32;34312;-79
2021/12/09 00:44:05;;;;;;;;;;;;;;;5.10;59.36;98731.41;4451132;32;31342;-78
2021/12/09 00:46:33;;;;;;;;;;;;;;;5.53;57.46;98730.22;4479936;32;33019;-85
2021/12/09 00:49:00;;;;;;;;;;;;;;;5.50;57.89;98719.84;4433640;32;33928;-82
2021/12/09 00:51:28;;;;;;;;;;;;;;;5.48;57.41;98698.69;4435307;32;33537;-82
2021/12/09 00:53:55;;;;;;;;;;;;;;;4.47;60.12;98699.50;4433904;32;34341;-81
2021/12/09 00:56:22;;;;;;;;;;;;;;;4.70;59.55;98698.78;4445487;32;34108;-83
2021/12/09 00:58:50;;;;;;;;;;;;;;;4.19;61.77;98688.03;4434661;32;34997;-81
2021/12/09 01:01:18;;;;;;;;;;;;;;;3.85;62.70;98695.53;4451061;32;32404;-83
2021/12/09 01:03:49;;;;;;;;;;;;;;;4.04;62.82;98694.34;4430847;32;34206;-83
2021/12/09 01:06:16;;;;;;;;;;;;;;;3.96;62.56;98687.75;4439170;32;33356;-81
2021/12/09 01:08:44;;;;;;;;;;;;;;;4.07;62.95;98699.44;4448351;32;33269;-80
2021/12/09 01:11:12;;;;;;;;;;;;;;;4.29;62.54;98704.19;4452250;32;33619;-80
2021/12/09 01:13:40;;;;;;;;;;;;;;;3.25;65.10;98722.22;4440909;32;35228;-81
2021/12/09 01:16:08;;;;;;;;;;;;;;;3.97;63.15;98715.06;4454200;32;33980;-80
2021/12/09 01:18:36;;;;;;;;;;;;;;;4.33;61.96;98716.28;4449470;32;33562;-81
2021/12/09 01:21:04;;;;;;;;;;;;;;;4.58;61.21;98712.84;4432207;32;33473;-80
2021/12/09 01:23:32;;;;;;;;;;;;;;;4.29;62.87;98714.78;4451473;32;34152;-82
2021/12/09 01:26:02;;;;;;;;;;;;;;;4.12;62.81;98715.88;4437978;32;35227;-75
2021/12/09 01:28:35;;;;;;;;;;;;;;;4.11;62.53;98720.34;4452587;32;34259;-76
2021/12/09 01:31:05;;;;;;;;;;;;;;;4.63;62.46;98716.91;4471262;32;33768;-78
2021/12/09 01:33:33;;;;;;;;;;;;;;;4.59;60.70;98712.78;4470428;32;35317;-77
2021/12/09 01:36:00;;;;;;;;;;;;;;;5.02;59.67;98693.09;4458722;32;35551;-77
2021/12/09 01:38:31;;;;;;;;;;;;;;;4.86;59.60;98675.59;4435748;32;842104;-81
2021/12/09 01:40:59;;;;;;;;;;;;;;;4.27;61.18;98687.53;4450554;32;33494;-80
2021/12/09 01:43:26;;;;;;;;;;;;;;;4.44;61.13;98685.47;4457130;32;34215;-80
2021/12/09 01:46:04;;;;;;;;;;;;;;;4.89;60.46;98661.28;4458152;32;34058;-80
2021/12/09 01:48:31;;;;;;;;;;;;;;;4.93;59.37;98653.94;4456637;32;32035;-80
2021/12/09 01:50:59;;;;;;;;;;;;;;;4.78;59.80;98653.19;4448462;32;33798;-78
2021/12/09 01:53:27;;;;;;;;;;;;;;;4.50;60.54;98655.09;4474251;32;35389;-82
2021/12/09 01:55:56;;;;;;;;;;;;;;;4.25;61.80;98650.56;4457130;32;32838;-82
2021/12/09 01:58:24;;;;;;;;;;;;;;;4.08;62.18;98640.25;4456102;32;31844;-86
2021/12/09 02:00:51;;;;;;;;;;;;;;;4.39;61.46;98631.09;4438946;32;33097;-87
2021/12/09 02:03:19;;;;;;;;;;;;;;;4.51;61.71;98645.31;4435172;32;32977;-82
2021/12/09 02:05:47;;;;;;;;;;;;;;;4.27;61.18;98651.31;4444381;32;35240;-84
2021/12/09 02:08:15;;;;;;;;;;;;;;;3.96;62.07;98637.44;4434174;32;32166;-83
2021/12/09 02:10:43;;;;;;;;;;;;;;;4.26;61.61;98633.72;4446715;32;33825;-84
2021/12/09 02:13:11;;;;;;;;;;;;;;;4.23;61.15;98630.41;4436672;32;32540;-81
2021/12/09 02:15:39;;;;;;;;;;;;;;;3.85;62.77;98608.19;4443884;32;34412;-84
2021/12/09 02:18:07;;;;;;;;;;;;;;;3.59;63.28;98587.84;4449092;32;32276;-82
2021/12/09 02:20:37;;;;;;;;;;;;;;;3.33;63.85;98598.28;4432952;32;32659;-83
2021/12/09 02:23:09;;;;;;;;;;;;;;;2.97;65.31;98609.38;4459340;32;35210;-82
2021/12/09 02:25:37;;;;;;;;;;;;;;;2.44;67.32;98629.31;4435373;32;33117;-83
2021/12/09 02:28:05;;;;;;;;;;;;;;;3.20;65.30;98629.94;4444405;32;33410;-82
2021/12/09 02:30:32;;;;;;;;;;;;;;;3.40;65.70;98625.19;4437566;32;34037;-78
2021/12/09 02:33:00;;;;;;;;;;;;;;;3.55;64.45;98634.81;4471613;32;34977;-78
2021/12/09 02:35:27;;;;;;;;;;;;;;;3.31;64.36;98613.44;4448464;32;34110;-82
2021/12/09 02:37:55;;;;;;;;;;;;;;;3.68;63.70;98608.41;4434651;32;33352;-79
2021/12/09 02:40:22;;;;;;;;;;;;;;;3.58;64.32;98607.31;4447302;32;32745;-80
2021/12/09 02:42:50;;;;;;;;;;;;;;;3.73;64.00;98614.28;4457587;32;32644;-80
2021/12/09 02:45:17;;;;;;;;;;;;;;;3.80;62.51;98614.72;4449719;32;34234;-79
2021/12/09 02:47:45;;;;;;;;;;;;;;;3.78;62.90;98606.03;4435644;32;33636;-78
2021/12/09 02:50:12;;;;;;;;;;;;;;;3.32;65.30;98656.59;4442593;32;35236;-81
2021/12/09 02:52:39;;;;;;;;;;;;;;;3.45;64.67;98655.72;4450461;32;34333;-82
2021/12/09 02:55:07;;;;;;;;;;;;;;;2.74;66.54;98650.44;4440188;32;34394;-82
2021/12/09 02:57:34;;;;;;;;;;;;;;;3.57;64.13;98622.34;4440434;32;32658;-79
2021/12/09 03:00:03;;;;;;;;;;;;;;;3.74;63.19;98614.16;4441328;32;34253;-80
2021/12/09 03:02:31;;;;;;;;;;;;;;;3.30;64.55;98609.06;4457733;32;32682;-76
2021/12/09 03:05:01;;;;;;;;;;;;;;;3.49;64.25;98620.16;4451179;32;36255;-75
2021/12/09 03:07:34;;;;;;;;;;;;;;;3.79;63.75;98600.66;4460916;32;34529;-78
2021/12/09 03:10:09;;;;;;;;;;;;;;;3.78;62.59;98606.87;4456195;32;33653;-76
2021/12/09 03:12:41;;;;;;;;;;;;;;;3.20;64.52;98586.78;4456511;32;34397;-77
2021/12/09 03:15:09;;;;;;;;;;;;;;;3.70;64.20;98595.94;4459483;32;35971;-76
2021/12/09 03:17:38;;;;;;;;;;;;;;;3.90;63.15;98603.41;4464716;32;34410;-77
2021/12/09 03:20:08;;;;;;;;;;;;;;;4.26;62.57;98623.13;4456748;32;33921;-77
2021/12/09 03:22:37;;;;;;;;;;;;;;;3.99;62.24;98627.59;4459493;32;34318;-77
2021/12/09 03:25:04;;;;;;;;;;;;;;;4.82;59.92;98629.03;4453351;32;34075;-78
2021/12/09 03:27:32;;;;;;;;;;;;;;;4.84;60.49;98623.59;4455987;32;33779;-77
2021/12/09 03:29:59;;;;;;;;;;;;;;;3.89;63.49;98628.22;4459357;32;34251;-76
2021/12/09 03:32:27;;;;;;;;;;;;;;;4.84;60.07;98616.50;4456829;32;34327;-77
2021/12/09 03:34:54;;;;;;;;;;;;;;;4.41;61.92;98608.00;4457952;32;34412;-76
2021/12/09 03:37:22;;;;;;;;;;;;;;;3.99;62.26;98596.69;4455217;32;33523;-77
2021/12/09 03:39:53;;;;;;;;;;;;;;;4.65;60.84;98600.16;4460360;32;34140;-78
2021/12/09 03:42:22;;;;;;;;;;;;;;;4.60;61.22;98607.59;4454458;32;35207;-76
2021/12/09 03:44:49;;;;;;;;;;;;;;;4.67;61.41;98612.38;4451685;32;34091;-79
2021/12/09 03:47:18;;;;;;;;;;;;;;;4.55;61.26;98610.56;4454881;32;34854;-80
2021/12/09 03:49:46;;;;;;;;;;;;;;;4.22;61.59;98629.56;4459880;32;35051;-77
2021/12/09 03:52:13;;;;;;;;;;;;;;;4.98;59.56;98620.03;4455613;32;34358;-77
2021/12/09 03:54:41;;;;;;;;;;;;;;;3.96;62.22;98618.91;4456343;32;34310;-79
2021/12/09 03:57:09;;;;;;;;;;;;;;;4.94;60.38;98616.72;4454996;32;33379;-75
2021/12/09 03:59:37;;;;;;;;;;;;;;;4.25;62.04;98620.59;4458864;32;32853;-74
2021/12/09 04:02:05;;;;;;;;;;;;;;;4.64;61.74;98630.28;4457804;32;35494;-75
2021/12/09 04:04:33;;;;;;;;;;;;;;;4.67;60.45;98628.28;4458273;32;34477;-77
2021/12/09 04:07:00;;;;;;;;;;;;;;;4.60;61.47;98619.03;4453280;32;33464;-75
2021/12/09 04:09:27;;;;;;;;;;;;;;;4.49;61.28;98620.72;4461153;32;32788;-78
2021/12/09 04:11:55;;;;;;;;;;;;;;;4.02;62.38;98615.00;4458025;32;33734;-77
2021/12/09 04:14:22;;;;;;;;;;;;;;;3.19;65.22;98611.53;4459055;32;34346;-77
2021/12/09 04:16:50;;;;;;;;;;;;;;;3.90;63.60;98608.72;4458851;32;32909;-77
2021/12/09 04:19:18;;;;;;;;;;;;;;;4.10;63.01;98598.59;4458897;32;35035;-77
2021/12/09 04:21:45;;;;;;;;;;;;;;;4.72;60.91;98596.16;4458526;32;34889;-77
2021/12/09 04:24:13;;;;;;;;;;;;;;;4.67;61.88;98611.53;4457592;32;35454;-77
2021/12/09 04:26:41;;;;;;;;;;;;;;;4.42;62.49;98621.13;4453744;32;33495;-77
2021/12/09 04:29:09;;;;;;;;;;;;;;;5.03;61.58;98633.78;4457471;32;34212;-77
2021/12/09 04:31:40;;;;;;;;;;;;;;;4.97;59.88;98632.41;4455248;32;33067;-77
2021/12/09 04:34:08;;;;;;;;;;;;;;;5.31;59.43;98622.09;4450883;32;35360;-78
2021/12/09 04:36:37;;;;;;;;;;;;;;;5.30;57.38;98623.06;4457493;32;32722;-77
2021/12/09 04:39:05;;;;;;;;;;;;;;;4.32;61.11;98606.81;4456704;32;35109;-78
2021/12/09 04:41:32;;;;;;;;;;;;;;;4.43;60.87;98601.66;4462403;32;35383;-77
2021/12/09 04:44:03;;;;;;;;;;;;;;;4.57;61.08;98592.75;4451294;32;34445;-76
2021/12/09 04:46:30;;;;;;;;;;;;;;;4.34;61.73;98596.13;4458072;32;34366;-76
2021/12/09 04:48:58;;;;;;;;;;;;;;;4.62;60.88;98588.00;4467931;32;33989;-76
2021/12/09 04:51:25;;;;;;;;;;;;;;;3.92;63.18;98590.09;4470053;32;35343;-76
2021/12/09 04:53:53;;;;;;;;;;;;;;;4.52;61.94;98597.50;4473429;32;33066;-76
2021/12/09 04:56:20;;;;;;;;;;;;;;;4.88;60.83;98588.00;4456931;32;34501;-76
2021/12/09 04:58:48;;;;;;;;;;;;;;;4.85;59.09;98585.56;4458861;32;35079;-77
2021/12/09 05:01:15;;;;;;;;;;;;;;;4.41;60.75;98582.34;4454937;32;32844;-77
2021/12/09 05:03:46;;;;;;;;;;;;;;;4.31;62.16;98589.22;4457525;32;35032;-76
2021/12/09 05:06:15;;;;;;;;;;;;;;;4.32;63.17;98588.28;4476634;32;34374;-77
2021/12/09 05:08:46;;;;;;;;;;;;;;;4.94;59.89;98589.34;4455158;32;34097;-78
2021/12/09 05:13:54;;;;;;;;;;;;;;;4.81;59.28;98587.56;4476332;32;35408;-74
2021/12/09 05:16:21;;;;;;;;;;;;;;;4.74;60.15;98602.19;4457096;32;33568;-77
2021/12/09 05:18:58;;;;;;;;;;;;;;;5.19;58.60;98609.69;4461334;32;33306;-78
2021/12/09 05:21:30;;;;;;;;;;;;;;;5.73;57.07;98604.03;4456473;32;34109;-79
2021/12/09 05:23:57;;;;;;;;;;;;;;;5.74;57.48;98603.91;4461187;32;34480;-78
2021/12/09 05:26:28;;;;;;;;;;;;;;;5.50;57.58;98597.75;4462123;32;33444;-79
2021/12/09 05:28:57;;;;;;;;;;;;;;;4.51;59.68;98602.94;4465995;32;34028;-77
2021/12/09 05:34:14;;;;;;;;;;;;;;;4.68;59.42;98594.66;4457891;32;35235;-80
2021/12/09 05:36:42;;;;;;;;;;;;;;;4.99;59.28;98589.88;4461322;32;34963;-82
2021/12/09 05:39:10;;;;;;;;;;;;;;;4.80;59.83;98577.06;4471376;32;34296;-79
2021/12/09 05:41:37;;;;;;;;;;;;;;;4.89;60.02;98571.97;4463404;32;34723;-81
2021/12/09 05:44:05;;;;;;;;;;;;;;;4.59;59.77;98560.84;4459763;32;33096;-79
2021/12/09 05:46:33;;;;;;;;;;;;;;;4.46;60.54;98562.63;4459590;32;33742;-82
2021/12/09 05:49:01;;;;;;;;;;;;;;;4.04;62.08;98554.84;4460623;32;32337;-78
2021/12/09 05:51:28;;;;;;;;;;;;;;;3.57;63.32;98547.41;4458784;32;34170;-81
2021/12/09 05:54:05;;;;;;;;;;;;;;;3.78;62.77;98532.75;4463784;32;35258;-78
2021/12/09 05:56:33;;;;;;;;;;;;;;;3.81;62.93;98532.56;4459041;32;32434;-77
2021/12/09 05:59:00;;;;;;;;;;;;;;;3.56;63.31;98535.13;4467004;32;32532;-80
2021/12/09 06:01:27;;;;;;;;;;;;;;;3.19;64.61;98530.41;4471058;32;33154;-77
2021/12/09 06:03:55;;;;;;;;;;;;;;;3.31;64.36;98536.72;4464762;32;34285;-77
2021/12/09 06:06:22;;;;;;;;;;;;;;;3.20;65.20;98534.75;4463653;32;32204;-77
2021/12/09 06:08:50;;;;;;;;;;;;;;;3.02;65.78;98530.66;4474992;32;32871;-78
2021/12/09 06:11:17;;;;;;;;;;;;;;;2.99;66.17;98533.50;4464974;32;34581;-75
2021/12/09 06:13:46;;;;;;;;;;;;;;;3.04;66.00;98529.59;4473290;32;34346;-76
2021/12/09 06:16:14;;;;;;;;;;;;;;;3.15;66.12;98528.09;4478041;32;33421;-76
2021/12/09 06:18:42;;;;;;;;;;;;;;;2.83;66.90;98523.03;4476281;32;32720;-74
2021/12/09 06:21:09;;;;;;;;;;;;;;;2.28;69.49;98519.34;4476126;32;34010;-74
2021/12/09 06:23:36;;;;;;;;;;;;;;;2.53;69.07;98515.19;4464418;32;34548;-75
2021/12/09 06:26:05;;;;;;;;;;;;;;;2.78;67.69;98514.53;4461990;32;33376;-75
2021/12/09 06:28:34;;;;;;;;;;;;;;;2.52;68.82;98508.22;4462137;32;34179;-75
2021/12/09 06:31:02;;;;;;;;;;;;;;;2.77;68.28;98507.56;4460838;32;34038;-80
2021/12/09 06:33:30;;;;;;;;;;;;;;;3.19;66.51;98501.34;4466840;32;34339;-79
2021/12/09 06:35:58;;;;;;;;;;;;;;;2.96;67.29;98483.47;4477425;32;33741;-73
2021/12/09 06:38:25;;;;;;;;;;;;;;;2.47;69.66;98505.88;4476334;32;35007;-81
2021/12/09 06:40:53;;;;;;;;;;;;;;;2.48;69.04;98496.16;4452413;32;34865;-79
2021/12/09 06:43:22;;;;;;;;;;;;;;;2.36;69.55;98499.53;4442654;32;34548;-78
2021/12/09 06:45:49;;;;;;;;;;;;;;;2.53;68.96;98500.19;4462041;32;33545;-80
2021/12/09 06:48:17;;;;;;;;;;;;;;;2.61;68.57;98505.03;4457214;32;32892;-77
2021/12/09 06:50:44;;;;;;;;;;;;;;;2.59;69.31;98506.06;4468301;32;33127;-75
2021/12/09 06:53:14;;;;;;;;;;;;;;;2.58;69.75;98504.38;4475151;32;35154;-73
2021/12/09 06:55:42;;;;;;;;;;;;;;;2.91;68.02;98523.37;4467950;32;35875;-75
2021/12/09 06:58:10;;;;;;;;;;;;;;;3.43;66.49;98527.97;4470735;32;35127;-72
2021/12/09 07:00:41;;;;;;;;;;;;;;;3.02;68.59;98528.00;4473692;32;34283;-73
2021/12/09 07:03:10;;;;;;;;;;;;;;;3.50;66.20;98531.94;4462707;32;35325;-74
2021/12/09 07:05:38;;;;;;;;;;;;;;;3.59;65.74;98534.91;4459244;32;33538;-72
2021/12/09 07:08:05;;;;;;;;;;;;;;;3.69;64.97;98538.66;4470780;32;35099;-72
2021/12/09 07:10:33;;;;;;;;;;;;;;;3.29;65.80;98543.91;4474794;32;34308;-79
2021/12/09 07:13:01;;;;;;;;;;;;;;;2.66;68.31;98536.44;4473223;32;33155;-71
2021/12/09 07:15:29;;;;;;;;;;;;;;;3.12;66.87;98539.69;4476034;32;33414;-74
2021/12/09 07:17:56;;;;;;;;;;;;;;;3.19;66.67;98540.16;4475226;32;34143;-71
2021/12/09 07:20:23;;;;;;;;;;;;;;;3.15;66.19;98541.31;4474473;32;34371;-73
2021/12/09 07:22:51;;;;;;;;;;;;;;;2.57;68.23;98532.56;4474662;32;33232;-71
2021/12/09 07:25:19;;;;;;;;;;;;;;;2.80;68.26;98544.38;4477485;32;33549;-72
2021/12/09 07:27:46;;;;;;;;;;;;;;;2.56;68.54;98522.94;4474956;32;34181;-71
2021/12/09 07:30:15;;;;;;;;;;;;;;;2.53;69.26;98508.13;4472401;32;35260;-72
2021/12/09 07:32:43;;;;;;;;;;;;;;;2.77;67.47;98513.69;4471933;32;34614;-69
2021/12/09 07:35:10;;;;;;;;;;;;;;;2.44;69.04;98513.13;4477291;32;34222;-74
2021/12/09 07:37:38;;;;;;;;;;;;;;;2.40;69.49;98506.34;4455628;32;32925;-70
2021/12/09 07:40:07;;;;;;;;;;;;;;;2.67;68.81;98511.72;4478700;32;33267;-71
2021/12/09 07:42:34;;;;;;;;;;;;;;;2.24;69.80;98512.53;4464683;32;34418;-70
2021/12/09 07:45:02;;;;;;;;;;;;;;;2.27;71.12;98501.78;4476808;32;33459;-73
2021/12/09 07:47:30;;;;;;;;;;;;;;;2.38;70.23;98498.53;4473665;32;34296;-71
2021/12/09 07:49:57;;;;;;;;;;;;;;;2.21;71.02;98501.31;4472998;32;34262;-72
2021/12/09 07:52:24;;;;;;;;;;;;;;;2.23;70.72;98499.44;4475473;32;34301;-71
2021/12/09 07:54:52;;;;;;;;;;;;;;;1.83;71.91;98491.25;4476386;32;33729;-71
2021/12/09 07:57:19;;;;;;;;;;;;;;;1.97;72.04;98491.31;4457609;32;33680;-71
2021/12/09 07:59:46;;;;;;;;;;;;;;;2.08;71.98;98496.78;4472022;32;32980;-72
2021/12/09 08:02:15;;;;;;;;;;;;;;;2.32;71.31;98488.31;4474893;32;35438;-72
2021/12/09 08:04:43;;;;;;;;;;;;;;;2.14;71.58;98482.34;4478853;32;34469;-72
2021/12/09 08:07:10;;;;;;;;;;;;;;;2.23;71.29;98484.44;4460492;32;34099;-71
2021/12/09 08:09:37;;;;;;;;;;;;;;;2.34;71.23;98481.12;4476844;32;32927;-76
2021/12/09 08:12:05;;;;;;;;;;;;;;;1.82;72.18;98479.00;4460261;32;34418;-78
2021/12/09 08:14:32;;;;;;;;;;;;;;;2.23;72.07;98491.53;4457806;32;34521;-76
2021/12/09 08:17:13;;;;;;;;;;;;;;;2.35;71.41;98482.03;4475107;32;34811;-77
2021/12/09 08:19:40;;;;;;;;;;;;;;;2.10;71.22;98481.69;4460082;32;34953;-76
2021/12/09 08:22:08;;;;;;;;;;;;;;;2.21;72.03;98483.69;4475722;32;35525;-76
2021/12/09 08:24:35;;;;;;;;;;;;;;;2.48;70.44;98483.81;4477458;32;33458;-77
2021/12/09 08:27:03;;;;;;;;;;;;;;;2.15;70.93;98485.84;4465484;32;35172;-77
2021/12/09 08:29:30;;;;;;;;;;;;;;;2.39;70.00;98475.59;4475291;32;34251;-76
2021/12/09 08:31:58;;;;;;;;;;;;;;;2.26;71.13;98478.97;4461820;32;34508;-77
2021/12/09 08:34:25;;;;;;;;;;;;;;;2.30;70.77;98472.56;4468762;32;33747;-76
2021/12/09 08:36:55;;;;;;;;;;;;;;;1.99;71.55;98468.31;4459397;32;35241;-78
2021/12/09 08:39:22;;;;;;;;;;;;;;;2.47;69.93;98466.25;4469537;32;34094;-76
2021/12/09 08:41:50;;;;;;;;;;;;;;;2.18;71.98;98461.91;4462218;32;35389;-77
2021/12/09 08:44:17;;;;;;;;;;;;;;;2.00;72.01;98469.16;4467606;32;33396;-77
2021/12/09 08:46:44;;;;;;;;;;;;;;;2.33;70.56;98467.09;4440958;32;34267;-77
2021/12/09 08:49:12;;;;;;;;;;;;;;;2.47;70.34;98460.09;4470094;32;32222;-78
2021/12/09 08:51:39;;;;;;;;;;;;;;;2.62;69.63;98458.31;4465035;32;34529;-77
2021/12/09 08:54:07;;;;;;;;;;;;;;;2.46;70.49;98459.25;4471882;32;34583;-77
2021/12/09 08:56:36;;;;;;;;;;;;;;;2.24;70.45;98474.72;4456863;32;34028;-77
2021/12/09 08:59:04;;;;;;;;;;;;;;;2.29;70.85;98459.47;4456090;32;32476;-77
2021/12/09 09:01:33;;;;;;;;;;;;;;;2.44;70.74;98463.81;4459102;32;33938;-78
2021/12/09 09:04:01;;;;;;;;;;;;;;;2.48;70.24;98454.75;4462287;32;33680;-77
2021/12/09 09:06:31;;;;;;;;;;;;;;;2.25;71.33;98456.16;4445630;32;33975;-77
2021/12/09 09:08:59;;;;;;;;;;;;;;;2.28;71.00;98460.38;4476678;32;33897;-77
2021/12/09 09:11:29;;;;;;;;;;;;;;;2.17;72.17;98468.97;4477982;32;33327;-77
2021/12/09 09:13:57;;;;;;;;;;;;;;;2.44;71.01;98473.50;4474272;32;33548;-77
2021/12/09 09:16:24;;;;;;;;;;;;;;;2.60;70.89;98471.63;4460629;32;33954;-78
2021/12/09 09:18:55;;;;;;;;;;;;;;;2.45;71.88;98465.50;4456072;32;35544;-79
2021/12/09 09:21:23;;;;;;;;;;;;;;;2.96;69.70;98478.19;4472034;32;34341;-77
2021/12/09 09:23:50;;;;;;;;;;;;;;;2.69;70.40;98478.09;4469232;32;33472;-78
2021/12/09 09:26:18;;;;;;;;;;;;;;;2.33;71.12;98479.44;4471865;32;34085;-76
2021/12/09 09:28:48;;;;;;;;;;;;;;;2.37;71.80;98480.09;4469209;32;35192;-79
2021/12/09 09:31:15;;;;;;;;;;;;;;;2.63;70.98;98479.34;4466308;32;34596;-79
2021/12/09 09:33:43;;;;;;;;;;;;;;;2.47;71.25;98457.47;4458844;32;33644;-77
2021/12/09 09:36:10;;;;;;;;;;;;;;;2.64;71.26;98437.94;4475148;32;33434;-77
2021/12/09 09:38:38;;;;;;;;;;;;;;;2.43;72.18;98435.69;4459346;32;34172;-77
2021/12/09 09:41:09;;;;;;;;;;;;;;;2.26;72.73;98436.75;4462450;32;35205;-77
2021/12/09 09:46:19;;;;;;;;;;;;;;;2.48;72.52;98428.34;4474291;32;34054;-77
2021/12/09 09:48:47;;;;;;;;;;;;;;;2.28;73.11;98423.44;4457639;32;34090;-77
2021/12/09 09:51:15;;;;;;;;;;;;;;;2.24;73.64;98409.56;4474222;32;32322;-78
2021/12/09 09:53:42;;;;;;;;;;;;;;;2.31;73.46;98405.63;4459270;32;33675;-77
2021/12/09 09:56:15;;;;;;;;;;;;;;;2.62;72.24;98406.31;4446755;32;32631;-80
2021/12/09 09:58:44;;;;;;;;;;;;;;;2.74;72.50;98397.62;4445007;32;34370;-77
2021/12/09 10:01:11;;;;;;;;;;;;;;;2.88;71.71;98378.22;4452124;32;35330;-78
2021/12/09 10:03:42;;;;;;;;;;;;;;;3.24;70.25;98393.47;4458642;32;33507;-78
2021/12/09 10:06:09;;;;;;;;;;;;;;;2.94;71.06;98388.41;4460529;32;34197;-77
2021/12/09 10:08:37;;;;;;;;;;;;;;;2.85;71.13;98373.12;4452295;32;34344;-78
2021/12/09 10:11:05;;;;;;;;;;;;;;;2.96;70.76;98383.88;4450584;32;33381;-78
2021/12/09 10:13:37;;;;;;;;;;;;;;;3.06;71.04;98388.56;4446145;32;33310;-77
2021/12/09 10:16:15;;;;;;;;;;;;;;;2.90;71.02;98378.13;4476222;32;34226;-77
2021/12/09 10:18:44;;;;;;;;;;;;;;;3.02;70.76;98367.59;4471474;32;33203;-76
2021/12/09 10:21:12;;;;;;;;;;;;;;;3.22;70.53;98374.22;4453867;32;32984;-77
2021/12/09 10:23:45;;;;;;;;;;;;;;;2.75;71.64;98369.41;4456194;32;32578;-77
2021/12/09 10:26:16;;;;;;;;;;;;;;;2.85;71.75;98374.94;4456753;32;33819;-77
2021/12/09 10:28:49;;;;;;;;;;;;;;;3.45;68.99;98354.16;4481940;32;34443;-76
2021/12/09 10:31:21;;;;;;;;;;;;;;;3.06;70.64;98367.41;4463752;32;35321;-77
2021/12/09 10:34:51;;;;;;;;;;;;;;;2.84;71.55;98355.59;4469838;32;33536;-76
2021/12/09 10:36:53;;;;;;;;;;;;;;;2.98;71.19;98368.72;4448123;32;34117;-75
2021/12/09 10:39:36;;;;;;;;;;;;;;;3.17;69.68;98375.47;4480182;32;35050;-76
2021/12/09 10:42:14;;;;;;;;;;;;;;;3.09;70.02;98378.63;4468127;32;34275;-75
2021/12/09 10:44:49;;;;;;;;;;;;;;;3.56;69.48;98376.38;4459261;32;31741;-76
2021/12/09 10:47:25;;;;;;;;;;;;;;;3.28;69.89;98394.13;4459810;32;33837;-75
2021/12/09 10:52:56;;;;;;;;;;;;;;;3.10;70.68;98388.25;4451986;32;34086;-80
2021/12/09 10:55:29;;;;;;;;;;;;;;;3.36;71.13;98381.22;4460669;32;33726;-78
2021/12/09 10:57:58;;;;;;;;;;;;;;;3.47;70.47;98369.94;4461932;32;33908;-79
2021/12/09 11:00:26;;;;;;;;;;;;;;;3.69;69.31;98375.47;4455381;32;34013;-78
2021/12/09 11:03:04;;;;;;;;;;;;;;;3.65;69.86;98373.94;4471210;32;35370;-79
2021/12/09 11:05:33;;;;;;;;;;;;;;;3.78;69.77;98373.12;4456034;32;33699;-79
2021/12/09 11:08:16;;;;;;;;;;;;;;;4.18;68.30;98369.41;4455846;32;34116;-79
2021/12/09 11:10:48;;;;;;;;;;;;;;;4.39;67.29;98366.16;4469994;32;34130;-80
2021/12/09 11:13:17;;;;;;;;;;;;;;;3.83;69.55;98371.00;4464535;32;36587;-80
2021/12/09 11:15:56;;;;;;;;;;;;;;;4.09;67.28;98358.59;4456289;32;33466;-80
2021/12/09 11:18:34;;;;;;;;;;;;;;;4.71;66.42;98355.06;4461754;32;32733;-75
2021/12/09 11:21:07;;;;;;;;;;;;;;;4.78;65.96;98358.94;4474844;32;34426;-75
2021/12/09 11:23:36;;;;;;;;;;;;;;;4.80;66.11;98349.09;4456531;32;34303;-72
2021/12/09 11:26:19;;;;;;;;;;;;;;;4.59;65.55;98338.22;4469691;32;33514;-73
2021/12/09 11:28:57;;;;;;;;;;;;;;;4.36;66.71;98327.50;4468815;32;33879;-76
2021/12/09 11:31:28;;;;;;;;;;;;;;;4.55;66.95;98323.53;4472438;32;34190;-77
2021/12/09 11:33:57;;;;;;;;;;;;;;;4.62;66.84;98320.34;4456241;32;33698;-73
2021/12/09 11:36:41;;;;;;;;;;;;;;;4.93;65.75;98323.34;4466686;32;33346;-78
2021/12/09 11:39:12;;;;;;;;;;;;;;;4.87;66.26;98335.25;4455197;32;34713;-78
2021/12/09 11:41:42;;;;;;;;;;;;;;;4.75;66.04;98330.88;4458749;32;35298;-79
2021/12/09 11:44:09;;;;;;;;;;;;;;;4.53;67.01;98328.94;4472813;32;34476;-76
2021/12/09 11:46:40;;;;;;;;;;;;;;;5.25;65.02;98322.75;4469428;32;33378;-79
2021/12/09 11:49:08;;;;;;;;;;;;;;;4.96;65.78;98335.53;4447633;32;32284;-82
2021/12/09 11:51:36;;;;;;;;;;;;;;;5.17;65.67;98328.66;4432296;32;34192;-78
2021/12/09 11:54:04;;;;;;;;;;;;;;;5.30;65.19;98313.50;4460403;32;33113;-78
2021/12/09 12:07:32;;;;;;;;;;;;;;;4.76;67.41;98305.22;4460775;32;33720;-77
2021/12/09 12:16:02;;;;;;;;;;;;;;;5.07;65.87;98296.66;4469237;32;35501;-83
2021/12/09 12:24:06;;;;;;;;;;;;;;;4.96;66.04;98287.81;4465257;32;34392;-81
2021/12/09 12:40:19;;;;;;;;;;;;;;;4.29;68.41;98278.56;4472551;32;34845;-78
2021/12/09 12:46:36;;;;;;;;;;;;;;;4.64;67.93;98297.19;4453987;32;32908;-78
2021/12/09 12:51:14;;;;;;;;;;;;;;;4.49;68.28;98302.75;4464217;32;32314;-79
2021/12/09 12:53:43;;;;;;;;;;;;;;;5.48;65.03;98313.03;4466535;32;33114;-79
2021/12/09 12:56:15;;;;;;;;;;;;;;;5.62;64.46;98310.19;4454495;32;34392;-78
2021/12/09 12:59:01;;;;;;;;;;;;;;;6.33;62.97;98316.13;4454137;32;34473;-77
2021/12/09 13:01:29;;;;;;;;;;;;;;;5.50;63.15;98313.78;4464004;32;33663;-79
2021/12/09 13:04:05;;;;;;;;;;;;;;;6.97;59.63;98300.25;4471190;32;33934;-78
2021/12/09 13:06:39;;;;;;;;;;;;;;;7.04;58.53;98303.25;4453613;32;32894;-77
2021/12/09 13:09:39;;;;;;;;;;;;;;;7.07;58.21;98297.66;4467435;32;34574;-76
2021/12/09 13:12:10;;;;;;;;;;;;;;;6.71;59.62;98297.09;4466151;32;33551;-77
2021/12/09 13:15:01;;;;;;;;;;;;;;;5.99;61.40;98300.19;4452687;32;34036;-77
2021/12/09 13:17:39;;;;;;;;;;;;;;;6.74;58.83;98291.50;4454437;32;33604;-77
2021/12/09 13:20:15;;;;;;;;;;;;;;;6.28;60.61;98291.72;4456243;32;34395;-77
2021/12/09 13:22:43;;;;;;;;;;;;;;;6.33;59.66;98275.44;4454746;32;32479;-77
2021/12/09 13:25:22;;;;;;;;;;;;;;;5.97;61.98;98285.34;4458303;32;32657;-80
2021/12/09 13:27:58;;;;;;;;;;;;;;;6.00;60.85;98272.69;4454494;32;33421;-79
2021/12/09 13:35:52;;;;;;;;;;;;;;;5.57;62.99;98264.56;4466449;32;34279;-79
2021/12/09 13:46:35;;;;;;;;;;;;;;;5.08;64.44;98269.19;4455034;32;34463;-78
2021/12/09 13:49:57;;;;;;;;;;;;;;;4.46;67.18;98271.19;4458177;32;34280;-77
2021/12/09 13:54:02;;;;;;;;;;;;;;;5.14;64.73;98270.53;4456815;32;34484;-78
2021/12/09 13:54:53;;;;;;;;;;;;;;;5.19;64.87;98268.34;4456253;32;33721;-79
2021/12/09 13:57:50;;;;;;;;;;;;;;;5.41;64.34;98264.91;4454397;32;33839;-80
2021/12/09 14:00:24;;;;;;;;;;;;;;;5.70;63.15;98259.97;4442579;32;33319;-77
2021/12/09 14:02:53;;;;;;;;;;;;;;;5.82;62.56;98263.50;4471754;32;34375;-79
2021/12/09 14:05:20;;;;;;;;;;;;;;;5.97;62.54;98253.47;4458829;32;32504;-80
2021/12/09 14:08:01;;;;;;;;;;;;;;;5.89;62.19;98259.38;4456152;32;33122;-79
2021/12/09 14:10:32;;;;;;;;;;;;;;;5.05;64.55;98245.53;4449957;32;34847;-75
2021/12/09 14:13:06;;;;;;;;;;;;;;;4.98;65.52;98246.97;4474117;32;34373;-76
2021/12/09 14:15:38;;;;;;;;;;;;;;;5.16;65.64;98236.75;4457127;32;34339;-77
2021/12/09 14:18:11;;;;;;;;;;;;;;;5.58;64.07;98240.53;4459651;32;32651;-77